Terminal Aerodrome Forecast
Issued by NWS

Home | Current Version | Previous Version | Graphics & Text | Print | Product List | Glossary On
Versions: 1 2 3 4 5 6 7 8 9 10 11 12 13 14 15 16
000
FTUS43 KGRB 291132
TAFATW
TAF
KATW 291132Z 2912/3012 21009KT P6SM SCT035
      TEMPO 2913/2916 BKN035
     FM291600 25013G20KT P6SM BKN035 BKN060
      TEMPO 2916/2920 -SHRA BKN020
     FM300100 26006KT P6SM SCT040=

USA.gov is the U.S. government's official web portal to all federal, state and local government web resources and services.